Terminal Aerodrome Forecast
Issued by NWS

Home | Current Version | Previous Version | Text Only | Print | Product List | Glossary On
Versions: 1 2 3 4 5 6 7 8 9 10 11 12 13 14 15
027
FTUS46 KMTR 230538
TAFSJC
TAF
KSJC 230538Z 2306/2406 33007KT P6SM FEW011 SCT017 BKN025
     FM230700 VRB03KT P6SM OVC016
     FM231900 31005KT P6SM FEW015 SCT030
     FM232000 31010KT P6SM FEW020
     FM232200 30013KT P6SM SKC=

USA.gov is the U.S. government's official web portal to all federal, state and local government web resources and services.